createdAt,value
2022-09-07T00:01:15.215Z,72.85
2022-09-07T00:03:43.253Z,72.85
2022-09-07T00:06:13.106Z,72.92
2022-09-07T00:08:43.845Z,72.58
2022-09-07T00:11:15.978Z,72.62
2022-09-07T00:13:46.817Z,72.43
2022-09-07T00:16:20.269Z,72.37
2022-09-07T00:18:48.855Z,72.48
2022-09-07T00:21:18.029Z,72.64
2022-09-07T00:23:48.034Z,72.85
2022-09-07T00:26:22.804Z,72.86
2022-09-07T00:28:52.257Z,72.79
2022-09-07T00:31:23.676Z,72.97
2022-09-07T00:33:53.518Z,73.47
2022-09-07T00:36:22.832Z,73.48
2022-09-07T00:38:52.013Z,73.52
2022-09-07T00:41:22.273Z,73.72
2022-09-07T00:44:11.776Z,73.93
2022-09-07T00:46:39.841Z,73.72
2022-09-07T00:49:13.168Z,74.07
2022-09-07T00:51:46.300Z,74.06
2022-09-07T00:54:19.500Z,74.44
2022-09-07T00:56:50.422Z,74.49
2022-09-07T00:59:23.776Z,74.33
2022-09-07T01:01:52.072Z,74.38
2022-09-07T01:04:22.520Z,74.41
2022-09-07T01:06:50.679Z,74.32
2022-09-07T01:09:23.092Z,74.36
2022-09-07T01:11:53.842Z,74.30
2022-09-07T01:14:28.184Z,73.99
2022-09-07T01:17:02.065Z,73.64
2022-09-07T01:19:54.708Z,73.90
2022-09-07T01:22:41.729Z,74.21
2022-09-07T01:25:24.191Z,74.40
2022-09-07T01:28:12.170Z,74.73
2022-09-07T01:30:46.420Z,74.71
2022-09-07T01:33:23.252Z,74.96
2022-09-07T01:36:31.098Z,75.08
2022-09-07T01:39:04.244Z,75.35
2022-09-07T01:41:47.320Z,75.49
2022-09-07T01:44:18.400Z,75.76
2022-09-07T01:47:14.129Z,75.84
2022-09-07T01:49:54.709Z,75.82
2022-09-07T01:52:32.228Z,76.11
2022-09-07T01:55:11.098Z,75.99
2022-09-07T01:57:46.730Z,76.00
2022-09-07T02:00:18.650Z,76.14
2022-09-07T02:02:57.972Z,76.29
2022-09-07T02:05:40.873Z,76.06
2022-09-07T02:08:19.573Z,76.29
2022-09-07T02:10:59.967Z,76.62
2022-09-07T02:14:14.871Z,76.69
2022-09-07T02:17:07.360Z,76.53
2022-09-07T02:19:41.333Z,76.49
2022-09-07T02:22:16.258Z,76.71
2022-09-07T02:24:50.330Z,76.85
2022-09-07T02:27:27.257Z,76.40
2022-09-07T02:29:55.904Z,76.23
2022-09-07T02:32:23.987Z,76.44
2022-09-07T02:34:52.103Z,77.03
2022-09-07T02:37:21.658Z,77.29
2022-09-07T02:39:49.707Z,77.71
2022-09-07T02:42:17.762Z,77.83
2022-09-07T02:44:46.808Z,77.82
2022-09-07T02:47:26.020Z,78.25
2022-09-07T02:50:23.357Z,78.29
2022-09-07T02:52:57.438Z,78.77
2022-09-07T02:56:02.814Z,78.82
2022-09-07T02:58:55.966Z,78.90
2022-09-07T03:01:36.429Z,78.70
2022-09-07T03:04:36.290Z,79.06
2022-09-07T03:07:10.870Z,79.07
2022-09-07T03:09:43.756Z,79.35
2022-09-07T03:12:13.145Z,79.36
2022-09-07T03:14:42.813Z,79.36
2022-09-07T03:17:11.653Z,79.69
2022-09-07T03:19:39.809Z,80.05
2022-09-07T03:22:08.267Z,80.00
2022-09-07T03:24:37.289Z,80.19
2022-09-07T03:27:05.638Z,79.89
2022-09-07T03:29:33.723Z,80.25
2022-09-07T03:32:01.883Z,80.10
2022-09-07T03:34:30.138Z,80.42
2022-09-07T03:36:58.217Z,80.81
2022-09-07T03:39:26.764Z,80.83
2022-09-07T03:41:54.823Z,80.94
2022-09-07T03:44:22.837Z,80.86
2022-09-07T03:46:50.879Z,81.19
2022-09-07T03:49:19.284Z,81.24
2022-09-07T03:51:47.381Z,81.04
2022-09-07T03:54:15.451Z,81.17
2022-09-07T03:56:43.499Z,81.08
2022-09-07T03:59:11.600Z,80.90
2022-09-07T04:01:40.312Z,81.34
2022-09-07T04:04:09.359Z,81.70
2022-09-07T04:06:37.500Z,81.80
2022-09-07T04:09:08.310Z,81.70
2022-09-07T04:11:36.450Z,81.57
2022-09-07T04:14:04.644Z,81.29
2022-09-07T04:16:33.540Z,81.64
2022-09-07T04:19:01.770Z,81.02
2022-09-07T04:21:31.547Z,81.20
2022-09-07T04:24:00.222Z,81.38
2022-09-07T04:26:31.742Z,81.06
2022-09-07T04:29:03.711Z,80.82
2022-09-07T04:31:34.016Z,80.82
2022-09-07T04:34:02.975Z,80.69
2022-09-07T04:36:31.400Z,80.44
2022-09-07T04:39:02.411Z,80.47
2022-09-07T04:41:32.696Z,80.95
2022-09-07T04:44:02.679Z,80.99
2022-09-07T04:46:36.437Z,81.14
2022-09-07T04:49:09.483Z,81.26
2022-09-07T04:51:39.248Z,80.98
2022-09-07T04:54:07.432Z,81.36
2022-09-07T04:56:35.807Z,81.18
2022-09-07T04:59:04.439Z,81.61
2022-09-07T05:01:32.701Z,81.13
2022-09-07T05:04:01.945Z,80.85
2022-09-07T05:06:30.646Z,81.10
2022-09-07T05:08:59.329Z,81.36
2022-09-07T05:11:29.674Z,81.45
2022-09-07T05:14:00.157Z,81.10
2022-09-07T05:16:29.411Z,81.34
2022-09-07T05:19:00.159Z,80.68
2022-09-07T05:21:31.383Z,81.04
2022-09-07T05:24:00.930Z,80.61
2022-09-07T05:26:31.460Z,80.48
2022-09-07T05:31:52.364Z,80.85
2022-09-07T05:36:56.499Z,81.10
2022-09-07T05:39:24.979Z,81.21
2022-09-07T05:41:53.086Z,81.23
2022-09-07T05:47:09.825Z,81.37
2022-09-07T05:49:38.296Z,81.48
2022-09-07T05:52:07.010Z,81.69
2022-09-07T05:54:35.249Z,81.80
2022-09-07T05:57:04.107Z,82.39
2022-09-07T05:59:32.199Z,82.42
2022-09-07T06:02:00.390Z,81.96
2022-09-07T06:04:28.502Z,82.13
2022-09-07T06:07:20.619Z,82.19
2022-09-07T06:12:33.969Z,83.58
2022-09-07T06:15:02.050Z,83.93
2022-09-07T06:17:31.355Z,83.77
2022-09-07T06:19:59.383Z,83.83
2022-09-07T06:22:31.031Z,83.94
2022-09-07T06:24:59.719Z,84.06
2022-09-07T06:27:28.647Z,84.25
2022-09-07T06:29:57.108Z,84.19
2022-09-07T06:35:14.876Z,84.68
2022-09-07T06:37:43.010Z,85.32
2022-09-07T06:40:12.456Z,85.84
2022-09-07T06:42:40.916Z,85.86
2022-09-07T06:45:11.642Z,86.04
2022-09-07T06:47:40.410Z,85.67
2022-09-07T06:50:09.642Z,85.61
2022-09-07T06:55:28.021Z,85.53
2022-09-07T06:57:56.516Z,85.44
2022-09-07T07:00:24.767Z,85.63
2022-09-07T07:02:53.159Z,85.73
2022-09-07T07:05:21.251Z,85.44
2022-09-07T07:07:49.259Z,85.70
2022-09-07T07:10:21.006Z,85.95
2022-09-07T07:12:57.709Z,86.24
2022-09-07T07:15:28.828Z,86.63
2022-09-07T07:18:02.587Z,86.89
2022-09-07T07:20:42.707Z,86.58
2022-09-07T07:23:12.315Z,86.75
2022-09-07T07:25:40.676Z,87.20
2022-09-07T07:30:59.506Z,86.69
2022-09-07T07:33:33.214Z,86.99
2022-09-07T07:36:16.856Z,87.35
2022-09-07T07:39:03.077Z,86.87
2022-09-07T07:44:21.156Z,86.52
2022-09-07T07:46:52.387Z,86.63
2022-09-07T07:49:20.681Z,86.97
2022-09-07T07:54:37.220Z,86.12
2022-09-07T07:57:06.357Z,85.58
2022-09-07T07:59:35.448Z,85.92
2022-09-07T08:02:05.821Z,86.20
2022-09-07T08:04:35.500Z,86.11
2022-09-07T08:07:09.473Z,86.01
2022-09-07T08:09:43.728Z,85.23
2022-09-07T08:12:16.347Z,84.89
2022-09-07T08:14:46.644Z,85.18
2022-09-07T08:17:17.189Z,85.54
2022-09-07T08:19:45.405Z,85.68
2022-09-07T08:22:13.583Z,85.48
2022-09-07T08:24:41.925Z,85.10
2022-09-07T08:27:09.918Z,85.08
2022-09-07T08:29:38.089Z,85.26
2022-09-07T08:32:07.019Z,84.76
2022-09-07T08:34:38.197Z,84.55
2022-09-07T08:37:06.243Z,84.73
2022-09-07T08:39:34.273Z,84.46
2022-09-07T08:42:34.509Z,84.35
2022-09-07T08:45:21.567Z,84.02
2022-09-07T08:47:51.576Z,84.12
2022-09-07T08:50:33.902Z,84.00
2022-09-07T08:53:12.572Z,84.41
2022-09-07T08:55:58.428Z,84.52
2022-09-07T08:59:03.216Z,84.25
2022-09-07T09:01:41.157Z,84.49
2022-09-07T09:04:29.182Z,84.39
2022-09-07T09:07:14.295Z,84.17
2022-09-07T09:10:22.038Z,83.93
2022-09-07T09:12:55.188Z,84.03
2022-09-07T09:15:32.443Z,84.54
2022-09-07T09:18:00.264Z,84.46
2022-09-07T09:20:46.510Z,84.72
2022-09-07T09:23:17.405Z,84.32
2022-09-07T09:25:55.189Z,84.60
2022-09-07T09:28:25.526Z,84.80
2022-09-07T09:30:56.229Z,84.83
2022-09-07T09:33:28.009Z,84.57
2022-09-07T09:36:31.711Z,84.35
2022-09-07T09:39:00.800Z,84.34
2022-09-07T09:41:39.361Z,83.77
2022-09-07T09:44:15.779Z,84.26
2022-09-07T09:47:29.459Z,84.42
2022-09-07T09:49:41.066Z,84.56
2022-09-07T09:52:43.421Z,84.58
2022-09-07T09:55:34.593Z,84.58
2022-09-07T10:06:22.241Z,84.24
2022-09-07T10:08:59.754Z,84.11
2022-09-07T10:12:05.599Z,84.36
2022-09-07T10:14:36.403Z,84.30
2022-09-07T10:17:33.482Z,84.40
2022-09-07T10:20:16.497Z,84.10
2022-09-07T10:22:50.896Z,84.45
2022-09-07T10:25:34.987Z,84.19
2022-09-07T10:28:09.891Z,84.12
2022-09-07T10:31:03.234Z,83.97
2022-09-07T10:37:02.863Z,83.53
2022-09-07T10:40:04.226Z,83.58
2022-09-07T10:42:40.239Z,84.47
2022-09-07T10:45:08.478Z,83.84
2022-09-07T10:48:12.784Z,84.21
2022-09-07T10:50:51.560Z,83.85
2022-09-07T10:53:40.150Z,83.16
2022-09-07T10:56:28.150Z,83.04
2022-09-07T11:02:25.034Z,82.73
2022-09-07T11:05:31.072Z,82.43
2022-09-07T11:08:14.626Z,81.96
2022-09-07T11:11:15.499Z,81.95
2022-09-07T11:14:09.324Z,80.42
2022-09-07T11:16:54.530Z,80.96
2022-09-07T11:19:44.345Z,81.00
2022-09-07T11:22:19.664Z,80.05
2022-09-07T11:27:55.212Z,78.39
2022-09-07T11:30:35.875Z,78.87
2022-09-07T11:33:28.187Z,77.80
2022-09-07T11:36:18.757Z,77.89
2022-09-07T11:38:56.103Z,77.76
2022-09-07T11:41:36.775Z,77.13
2022-09-07T11:44:10.030Z,76.47
2022-09-07T11:46:46.423Z,75.37
2022-09-07T11:49:22.531Z,75.84
2022-09-07T11:51:55.476Z,76.11
2022-09-07T11:54:33.929Z,75.07
2022-09-07T11:57:39.749Z,74.93
2022-09-07T12:00:12.208Z,75.89
2022-09-07T12:03:22.655Z,75.02
2022-09-07T12:06:12.887Z,74.83
2022-09-07T12:08:51.818Z,75.03
2022-09-07T12:11:31.883Z,74.96
2022-09-07T12:14:16.494Z,74.87
2022-09-07T12:17:14.418Z,74.73
2022-09-07T12:19:42.859Z,74.49
2022-09-07T12:22:23.471Z,74.38
2022-09-07T12:24:53.958Z,73.72
2022-09-07T12:27:22.170Z,73.67
2022-09-07T12:30:01.350Z,73.16
2022-09-07T12:32:55.814Z,73.44
2022-09-07T12:35:34.003Z,72.63
2022-09-07T12:38:03.414Z,72.04
2022-09-07T12:40:32.286Z,71.61
2022-09-07T12:43:48.222Z,71.41
2022-09-07T12:46:39.444Z,69.82
2022-09-07T12:49:48.643Z,69.68
2022-09-07T12:52:51.881Z,69.51
2022-09-07T12:56:16.019Z,69.09
2022-09-07T12:58:59.576Z,68.55
2022-09-07T13:01:44.402Z,68.66
2022-09-07T13:04:44.483Z,68.49
2022-09-07T13:07:39.007Z,68.24
2022-09-07T13:10:37.952Z,68.60
2022-09-07T13:13:15.133Z,68.76
2022-09-07T13:15:51.664Z,68.09
2022-09-07T13:18:25.941Z,67.57
2022-09-07T13:21:09.024Z,66.88
2022-09-07T13:24:45.590Z,66.84
2022-09-07T13:27:20.716Z,66.60
2022-09-07T13:30:16.805Z,66.47
2022-09-07T13:35:37.243Z,66.73
2022-09-07T13:38:05.832Z,66.90
2022-09-07T13:40:38.093Z,66.56
2022-09-07T13:43:18.260Z,66.38
2022-09-07T13:45:55.076Z,66.78
2022-09-07T13:48:42.511Z,67.53
2022-09-07T13:51:38.484Z,67.54
2022-09-07T13:54:15.608Z,67.87
2022-09-07T13:57:11.205Z,68.57
2022-09-07T13:59:42.857Z,68.87
2022-09-07T14:02:28.483Z,69.16
2022-09-07T14:05:00.468Z,69.68
2022-09-07T14:07:32.674Z,69.75
2022-09-07T14:10:05.046Z,70.31
2022-09-07T14:12:42.631Z,70.51
2022-09-07T14:15:27.731Z,69.90
2022-09-07T14:18:12.004Z,70.15
2022-09-07T14:20:49.829Z,69.31
2022-09-07T14:23:32.326Z,68.83
2022-09-07T14:26:19.876Z,68.88
2022-09-07T14:28:50.358Z,68.98
2022-09-07T14:31:20.714Z,68.96
2022-09-07T14:33:55.233Z,68.88
2022-09-07T14:36:48.255Z,69.14
2022-09-07T14:39:18.998Z,68.92
2022-09-07T14:41:47.744Z,68.55
2022-09-07T14:44:38.720Z,68.14
2022-09-07T14:47:21.861Z,68.21
2022-09-07T14:49:55.995Z,68.52
2022-09-07T14:55:42.832Z,68.98
2022-09-07T14:58:22.852Z,69.25
2022-09-07T15:04:01.473Z,69.94
2022-09-07T15:09:37.461Z,69.94
2022-09-07T15:12:15.023Z,70.12
2022-09-07T15:14:43.207Z,70.47
2022-09-07T15:17:46.434Z,70.60
2022-09-07T15:20:45.746Z,70.86
2022-09-07T15:23:16.128Z,70.67
2022-09-07T15:25:53.579Z,70.74
2022-09-07T15:34:12.599Z,70.26
2022-09-07T15:36:43.692Z,70.25
2022-09-07T15:39:19.228Z,70.76
2022-09-07T15:41:47.787Z,71.12
2022-09-07T15:44:21.563Z,71.01
2022-09-07T15:49:47.385Z,71.44
2022-09-07T15:52:18.308Z,71.56
2022-09-07T15:54:46.971Z,71.66
2022-09-07T16:00:07.168Z,71.56
2022-09-07T16:05:31.331Z,70.58
2022-09-07T16:10:54.250Z,70.08
2022-09-07T16:13:24.533Z,70.05
2022-09-07T16:15:53.069Z,70.23
2022-09-07T16:18:21.062Z,70.35
2022-09-07T16:20:52.611Z,70.46
2022-09-07T16:23:21.316Z,70.30
2022-09-07T16:25:58.019Z,70.60
2022-09-07T16:28:27.382Z,70.79
2022-09-07T16:30:56.543Z,70.87
2022-09-07T16:33:33.163Z,71.17
2022-09-07T16:36:14.503Z,71.25
2022-09-07T16:38:46.009Z,71.45
2022-09-07T16:41:39.625Z,71.64
2022-09-07T16:44:08.060Z,71.54
2022-09-07T16:46:36.135Z,71.82
2022-09-07T16:49:05.711Z,72.09
2022-09-07T16:51:34.336Z,72.17
2022-09-07T16:54:03.330Z,72.36
2022-09-07T16:56:38.327Z,72.42
2022-09-07T16:59:11.688Z,72.61
2022-09-07T17:01:39.781Z,72.98
2022-09-07T17:04:10.942Z,72.71
2022-09-07T17:06:40.513Z,73.30
2022-09-07T17:09:08.977Z,73.33
2022-09-07T17:11:37.517Z,73.39
2022-09-07T17:14:06.798Z,73.85
2022-09-07T17:16:38.383Z,74.13
2022-09-07T17:21:57.661Z,74.58
2022-09-07T17:24:25.796Z,74.63
2022-09-07T17:26:53.721Z,74.76
2022-09-07T17:29:22.130Z,75.17
2022-09-07T17:34:38.174Z,75.37
2022-09-07T17:37:06.474Z,75.80
2022-09-07T17:39:34.414Z,76.30
2022-09-07T17:42:02.424Z,76.01
2022-09-07T17:44:35.860Z,76.38
2022-09-07T17:47:06.089Z,76.22
2022-09-07T17:49:34.443Z,76.60
2022-09-07T17:52:02.670Z,76.78
2022-09-07T17:54:30.701Z,76.80
2022-09-07T17:56:58.963Z,77.37
2022-09-07T18:02:14.993Z,77.32
2022-09-07T18:04:43.127Z,77.33
2022-09-07T18:07:11.114Z,77.32
2022-09-07T18:09:39.330Z,77.93
2022-09-07T18:12:07.626Z,77.71
2022-09-07T18:14:35.579Z,77.75
2022-09-07T18:17:05.482Z,77.75
2022-09-07T18:19:33.624Z,77.82
2022-09-07T18:22:03.908Z,77.86
2022-09-07T18:24:32.074Z,77.93
2022-09-07T18:27:00.089Z,78.04
2022-09-07T18:29:33.039Z,77.94
2022-09-07T18:32:07.997Z,78.07
2022-09-07T18:34:40.628Z,78.33
2022-09-07T18:37:12.297Z,78.15
2022-09-07T18:39:40.840Z,78.46
2022-09-07T18:42:09.958Z,78.59
2022-09-07T18:47:29.149Z,78.72
2022-09-07T18:49:58.689Z,78.80
2022-09-07T18:55:16.379Z,79.02
2022-09-07T18:57:45.012Z,79.12
2022-09-07T19:00:14.357Z,79.15
2022-09-07T19:02:42.384Z,79.13
2022-09-07T19:07:59.819Z,79.53
2022-09-07T19:10:27.845Z,79.81
2022-09-07T19:12:56.673Z,79.60
2022-09-07T19:15:24.600Z,79.69
2022-09-07T19:17:54.759Z,79.73
2022-09-07T19:20:29.449Z,79.71
2022-09-07T19:23:01.592Z,79.80
2022-09-07T19:25:31.300Z,79.85
2022-09-07T19:28:00.637Z,79.94
2022-09-07T19:30:30.981Z,79.84
2022-09-07T19:33:04.194Z,80.09
2022-09-07T19:35:35.799Z,80.10
2022-09-07T19:38:04.305Z,80.35
2022-09-07T19:40:32.216Z,80.19
2022-09-07T19:43:00.190Z,79.96
2022-09-07T19:45:28.686Z,79.95
2022-09-07T19:47:56.698Z,79.91
2022-09-07T19:50:24.747Z,80.31
2022-09-07T19:52:52.722Z,80.13
2022-09-07T19:55:20.699Z,80.31
2022-09-07T19:57:50.710Z,80.31
2022-09-07T20:00:19.394Z,80.10
2022-09-07T20:02:49.931Z,80.33
2022-09-07T20:05:19.393Z,80.57
2022-09-07T20:07:47.360Z,80.44
2022-09-07T20:10:16.128Z,80.55
2022-09-07T20:12:44.693Z,80.72
2022-09-07T20:15:12.696Z,80.85
2022-09-07T20:17:40.598Z,80.73
2022-09-07T20:20:09.017Z,80.73
2022-09-07T20:22:37.577Z,80.76
2022-09-07T20:25:08.303Z,81.24
2022-09-07T20:27:38.501Z,81.34
2022-09-07T20:30:07.443Z,81.03
2022-09-07T20:32:35.719Z,81.39
2022-09-07T20:35:05.053Z,81.27
2022-09-07T20:37:34.368Z,81.45
2022-09-07T20:40:02.786Z,81.60
2022-09-07T20:42:30.819Z,81.53
2022-09-07T20:44:58.853Z,81.14
2022-09-07T20:47:26.901Z,81.13
2022-09-07T20:49:55.019Z,81.48
2022-09-07T20:52:23.320Z,81.48
2022-09-07T20:54:51.327Z,81.38
2022-09-07T20:57:19.481Z,81.40
2022-09-07T20:59:47.427Z,81.24
2022-09-07T21:02:15.451Z,81.53
2022-09-07T21:04:43.486Z,81.67
2022-09-07T21:07:11.451Z,81.79
2022-09-07T21:09:39.478Z,81.83
2022-09-07T21:12:07.626Z,82.08
2022-09-07T21:14:35.768Z,82.44
2022-09-07T21:17:03.779Z,82.71
2022-09-07T21:19:31.903Z,82.76
2022-09-07T21:21:59.924Z,83.01
2022-09-07T21:24:27.866Z,83.17
2022-09-07T21:26:55.856Z,83.14
2022-09-07T21:29:25.956Z,83.18
2022-09-07T21:31:55.196Z,83.14
2022-09-07T21:34:23.675Z,82.91
2022-09-07T21:36:52.761Z,82.83
2022-09-07T21:39:21.720Z,82.77
2022-09-07T21:41:49.742Z,82.83
2022-09-07T21:44:17.833Z,82.96
2022-09-07T21:46:46.239Z,82.63
2022-09-07T21:49:14.262Z,82.52
2022-09-07T21:51:42.251Z,82.43
2022-09-07T21:54:10.273Z,82.23
2022-09-07T21:56:40.185Z,82.04
2022-09-07T21:59:11.177Z,81.99
2022-09-07T22:01:39.815Z,82.54
2022-09-07T22:04:07.905Z,82.43
2022-09-07T22:06:35.965Z,82.72
2022-09-07T22:09:05.174Z,82.62
2022-09-07T22:11:33.194Z,82.35
2022-09-07T22:14:03.730Z,82.28
2022-09-07T22:16:34.257Z,82.29
2022-09-07T22:19:02.519Z,82.82
2022-09-07T22:21:31.331Z,82.56
2022-09-07T22:24:02.040Z,82.77
2022-09-07T22:26:32.926Z,82.62
2022-09-07T22:29:00.858Z,82.72
2022-09-07T22:31:39.023Z,82.64
2022-09-07T22:34:09.386Z,82.70
2022-09-07T22:36:43.520Z,82.89
2022-09-07T22:39:17.417Z,83.08
2022-09-07T22:41:47.396Z,83.22
2022-09-07T22:44:18.418Z,83.16
2022-09-07T22:46:47.699Z,83.23
2022-09-07T22:49:17.125Z,83.22
2022-09-07T22:51:45.939Z,83.50
2022-09-07T22:54:14.320Z,83.56
2022-09-07T22:56:42.832Z,83.32
2022-09-07T22:59:12.444Z,83.42
2022-09-07T23:01:41.266Z,83.42
2022-09-07T23:04:10.978Z,83.25
2022-09-07T23:06:42.190Z,83.45
2022-09-07T23:09:16.160Z,83.40
2022-09-07T23:11:46.247Z,83.45
2022-09-07T23:14:20.565Z,83.73
2022-09-07T23:16:49.581Z,83.93
2022-09-07T23:19:20.559Z,83.92
2022-09-07T23:21:48.626Z,83.70
2022-09-07T23:24:19.317Z,83.77
2022-09-07T23:26:47.670Z,83.91
2022-09-07T23:29:16.702Z,84.14
2022-09-07T23:31:46.641Z,84.16
2022-09-07T23:34:14.650Z,84.00
2022-09-07T23:36:42.661Z,83.99
2022-09-07T23:39:11.141Z,83.72
2022-09-07T23:41:39.449Z,84.07
2022-09-07T23:44:07.566Z,84.49
2022-09-07T23:46:35.984Z,84.00
2022-09-07T23:49:03.920Z,84.27
2022-09-07T23:51:31.934Z,83.96
2022-09-07T23:53:59.938Z,83.53
2022-09-07T23:56:28.097Z,83.73
2022-09-07T23:58:56.051Z,84.05
